Time;durP1;ratioP1;P1;durP2;ratioP2;P2;SDS_P1;SDS_P2;PMS_P1;PMS_P2;Temp;Humidity;BMP_temperature;BMP_pressure;BME280_temperature;BME280_humidity;BME280_pressure;Samples;Min_cycle;Max_cycle;Signal;HPM_P1;HPM_P2
2022/05/02 00:00:03;;;;;;;;;;;;;;;12.50;85.96;95284.56;4973818;28;1014;-49
2022/05/02 00:02:29;;;;;;;;;;;;;;;12.59;85.27;95285.38;4973865;28;1884;-49
2022/05/02 00:04:56;;;;;;;;;;;;;;;12.54;85.63;95286.88;4973992;28;975;-49
2022/05/02 00:07:22;;;;;;;;;;;;;;;12.49;85.59;95280.19;4973880;28;1009;-49
2022/05/02 00:09:48;;;;;;;;;;;;;;;12.47;86.12;95278.69;4972583;28;1110;-49
2022/05/02 00:12:14;;;;;;;;;;;;;;;12.60;86.03;95279.00;4973794;28;1910;-48
2022/05/02 00:14:40;;;;;;;;;;;;;;;12.57;84.82;95273.13;4973660;28;1029;-49
2022/05/02 00:17:06;;;;;;;;;;;;;;;12.59;85.73;95269.28;4974391;28;992;-49
2022/05/02 00:19:32;;;;;;;;;;;;;;;12.62;85.32;95268.94;4973635;28;997;-48
2022/05/02 00:21:58;;;;;;;;;;;;;;;12.66;84.60;95264.91;4973654;28;1088;-49
2022/05/02 00:24:24;;;;;;;;;;;;;;;12.66;85.00;95256.84;4976803;28;1028;-49
2022/05/02 00:26:50;;;;;;;;;;;;;;;12.55;83.96;95257.22;4977236;28;1266;-49
2022/05/02 00:29:16;;;;;;;;;;;;;;;12.31;85.15;95260.75;4977143;28;1041;-48
2022/05/02 00:31:44;;;;;;;;;;;;;;;12.18;85.79;95263.97;4976990;28;1029;-49
2022/05/02 00:34:10;;;;;;;;;;;;;;;12.16;86.19;95263.31;4977220;28;1903;-48
2022/05/02 00:36:36;;;;;;;;;;;;;;;12.27;85.86;95262.97;4976853;28;966;-49
2022/05/02 00:39:03;;;;;;;;;;;;;;;12.41;84.87;95252.56;4977159;28;967;-49
2022/05/02 00:41:29;;;;;;;;;;;;;;;12.44;84.98;95254.88;4976848;28;983;-49
2022/05/02 00:43:55;;;;;;;;;;;;;;;12.42;84.79;95252.38;4976930;28;1042;-49
2022/05/02 00:46:22;;;;;;;;;;;;;;;12.39;85.36;95243.84;4976626;28;1264;-49
2022/05/02 00:48:49;;;;;;;;;;;;;;;12.43;84.90;95243.34;4976867;28;1009;-49
2022/05/02 00:51:15;;;;;;;;;;;;;;;12.40;84.54;95250.88;4976721;28;984;-48
2022/05/02 00:53:43;;;;;;;;;;;;;;;12.43;84.27;95250.53;4976884;28;1984;-49
2022/05/02 00:56:09;;;;;;;;;;;;;;;12.43;84.74;95243.34;4976641;28;1200;-49
2022/05/02 00:58:36;;;;;;;;;;;;;;;12.38;84.58;95240.31;4976556;28;955;-48
2022/05/02 01:01:03;;;;;;;;;;;;;;;12.25;85.38;95238.16;4976716;28;958;-49
2022/05/02 01:03:31;;;;;;;;;;;;;;;12.11;85.60;95236.16;4976429;28;1076;-49
2022/05/02 01:08:41;;;;;;;;;;;;;;;12.33;84.64;95247.19;4976454;28;1077;-49
2022/05/02 01:11:08;;;;;;;;;;;;;;;12.43;83.95;95239.81;4976266;28;1033;-49
2022/05/02 01:13:40;;;;;;;;;;;;;;;12.41;84.12;95236.47;4976551;28;2005;-48
2022/05/02 01:16:11;;;;;;;;;;;;;;;12.42;83.85;95235.44;4976420;28;992;-49
2022/05/02 01:18:37;;;;;;;;;;;;;;;12.41;84.33;95237.31;4976243;28;992;-48
2022/05/02 01:21:11;;;;;;;;;;;;;;;12.38;83.61;95232.28;4976345;28;1038;-49
2022/05/02 01:23:37;;;;;;;;;;;;;;;12.37;84.39;95232.44;4976119;28;1004;-49
2022/05/02 01:26:03;;;;;;;;;;;;;;;12.39;84.42;95228.59;4976204;28;1222;-49
2022/05/02 01:28:29;;;;;;;;;;;;;;;12.40;83.84;95222.22;4975927;28;1390;-49
2022/05/02 01:30:55;;;;;;;;;;;;;;;12.42;84.05;95225.56;4975885;28;1041;-49
2022/05/02 01:33:21;;;;;;;;;;;;;;;12.38;84.27;95212.66;4976052;28;1910;-49
2022/05/02 01:35:47;;;;;;;;;;;;;;;12.28;84.14;95212.84;4974727;28;1049;-49
2022/05/02 01:38:13;;;;;;;;;;;;;;;12.18;84.71;95209.50;4976271;28;1060;-48
2022/05/02 01:40:40;;;;;;;;;;;;;;;12.18;84.34;95210.38;4975945;28;1022;-49
2022/05/02 01:43:06;;;;;;;;;;;;;;;12.20;84.64;95211.03;4976171;28;1207;-48
2022/05/02 01:45:32;;;;;;;;;;;;;;;12.29;84.31;95207.34;4975674;28;927;-48
2022/05/02 01:47:58;;;;;;;;;;;;;;;12.34;83.99;95204.13;4975431;28;1041;-48
2022/05/02 01:50:24;;;;;;;;;;;;;;;12.21;84.55;95204.66;4975685;28;993;-48
2022/05/02 01:52:50;;;;;;;;;;;;;;;12.22;83.83;95195.63;4975548;28;1983;-48
2022/05/02 01:55:16;;;;;;;;;;;;;;;12.12;84.65;95194.94;4975536;28;1034;-48
2022/05/02 01:57:42;;;;;;;;;;;;;;;11.90;85.61;95196.47;4975760;28;966;-48
2022/05/02 02:00:08;;;;;;;;;;;;;;;11.82;85.30;95191.94;4975905;28;1000;-48
2022/05/02 02:02:35;;;;;;;;;;;;;;;11.78;85.60;95190.59;4975253;28;1043;-48
2022/05/02 02:07:45;;;;;;;;;;;;;;;11.75;84.34;95185.56;4975179;28;1054;-48
2022/05/02 02:10:11;;;;;;;;;;;;;;;11.84;85.03;95181.88;4975598;28;1049;-48
2022/05/02 02:12:37;;;;;;;;;;;;;;;11.83;85.05;95177.53;4975162;28;1911;-48
2022/05/02 02:15:04;;;;;;;;;;;;;;;11.73;84.82;95168.84;4975498;28;982;-48
2022/05/02 02:17:30;;;;;;;;;;;;;;;11.75;84.92;95174.84;4974935;28;989;-48
2022/05/02 02:19:56;;;;;;;;;;;;;;;11.90;84.21;95180.41;4975077;28;1100;-48
2022/05/02 02:22:22;;;;;;;;;;;;;;;12.01;84.45;95173.84;4974852;28;1033;-48
2022/05/02 02:24:48;;;;;;;;;;;;;;;12.06;84.39;95171.50;4975654;28;1073;-48
2022/05/02 02:27:14;;;;;;;;;;;;;;;12.10;83.99;95170.16;4974825;28;1270;-49
2022/05/02 02:29:40;;;;;;;;;;;;;;;12.05;84.35;95159.13;4975222;28;1000;-49
2022/05/02 02:32:07;;;;;;;;;;;;;;;11.81;84.63;95168.81;4974895;28;1997;-48
2022/05/02 02:34:33;;;;;;;;;;;;;;;11.64;85.62;95156.44;4975011;28;992;-48
2022/05/02 02:37:00;;;;;;;;;;;;;;;11.68;84.46;95155.09;4974685;28;971;-48
2022/05/02 02:39:26;;;;;;;;;;;;;;;11.65;84.65;95156.28;4974745;28;1041;-48
2022/05/02 02:41:52;;;;;;;;;;;;;;;11.75;84.00;95161.47;4974996;28;943;-48
2022/05/02 02:44:18;;;;;;;;;;;;;;;11.82;84.09;95162.47;4974846;28;1181;-48
2022/05/02 02:46:44;;;;;;;;;;;;;;;11.85;83.79;95151.41;4974490;28;959;-48
2022/05/02 02:49:10;;;;;;;;;;;;;;;11.76;84.75;95160.47;4974742;28;1212;-48
2022/05/02 02:51:36;;;;;;;;;;;;;;;11.67;85.02;95154.25;4974408;28;1057;-48
2022/05/02 02:54:02;;;;;;;;;;;;;;;11.66;84.72;95162.47;4974811;28;1983;-47
2022/05/02 02:56:28;;;;;;;;;;;;;;;11.77;84.84;95161.31;4974478;28;1042;-48
2022/05/02 02:58:54;;;;;;;;;;;;;;;11.85;83.96;95156.75;4974659;28;1004;-47
2022/05/02 03:01:20;;;;;;;;;;;;;;;11.89;83.77;95162.63;4974790;28;1048;-48
2022/05/02 03:03:46;;;;;;;;;;;;;;;11.86;84.12;95149.56;4974352;28;1103;-48
2022/05/02 03:06:14;;;;;;;;;;;;;;;11.80;84.52;95161.81;4974709;28;1049;-48
2022/05/02 03:08:40;;;;;;;;;;;;;;;11.66;84.57;95157.94;4974538;28;1038;-48
2022/05/02 03:11:06;;;;;;;;;;;;;;;11.72;84.40;95159.09;4974763;28;1021;-48
2022/05/02 03:13:34;;;;;;;;;;;;;;;11.68;84.53;95161.28;4974388;28;1987;-48
2022/05/02 03:16:00;;;;;;;;;;;;;;;11.59;85.20;95162.31;4974405;28;989;-48
2022/05/02 03:18:26;;;;;;;;;;;;;;;11.64;84.34;95161.78;4974168;28;1041;-48
2022/05/02 03:20:53;;;;;;;;;;;;;;;11.61;84.84;95156.75;4974619;28;951;-48
2022/05/02 03:23:19;;;;;;;;;;;;;;;11.47;85.30;95156.41;4974313;28;1038;-49
2022/05/02 03:25:45;;;;;;;;;;;;;;;11.41;85.99;95156.28;4974205;28;1199;-48
2022/05/02 03:28:12;;;;;;;;;;;;;;;11.37;86.32;95152.25;4974363;28;1092;-48
2022/05/02 03:30:38;;;;;;;;;;;;;;;11.31;85.76;95151.91;4974293;28;1073;-48
2022/05/02 03:33:04;;;;;;;;;;;;;;;11.35;85.67;95155.09;4973895;28;1989;-48
2022/05/02 03:35:30;;;;;;;;;;;;;;;11.47;83.90;95152.91;4974065;28;1026;-48
2022/05/02 03:37:56;;;;;;;;;;;;;;;11.60;83.95;95158.59;4974296;28;1041;-48
2022/05/02 03:40:23;;;;;;;;;;;;;;;11.70;83.76;95166.47;4974687;28;1041;-49
2022/05/02 03:42:49;;;;;;;;;;;;;;;11.74;82.96;95159.78;4974250;28;978;-49
2022/05/02 03:45:15;;;;;;;;;;;;;;;11.84;83.29;95165.81;4974265;28;1053;-48
2022/05/02 03:47:41;;;;;;;;;;;;;;;11.89;83.52;95163.50;4973808;28;1061;-48
2022/05/02 03:50:07;;;;;;;;;;;;;;;11.93;84.17;95169.34;4974019;28;1122;-48
2022/05/02 03:52:33;;;;;;;;;;;;;;;11.92;84.15;95154.28;4974185;28;1907;-48
2022/05/02 03:54:59;;;;;;;;;;;;;;;11.94;83.75;95159.47;4973887;28;1868;-48
2022/05/02 03:57:25;;;;;;;;;;;;;;;11.99;83.50;95157.97;4974209;28;982;-48
2022/05/02 03:59:51;;;;;;;;;;;;;;;12.04;82.95;95158.28;4977834;28;943;-48
2022/05/02 04:02:17;;;;;;;;;;;;;;;12.09;83.40;95166.66;4977837;28;1053;-48
2022/05/02 04:04:44;;;;;;;;;;;;;;;12.04;83.80;95160.13;4977529;28;966;-48
2022/05/02 04:07:10;;;;;;;;;;;;;;;11.94;84.43;95159.47;4977860;28;1000;-48
2022/05/02 04:09:36;;;;;;;;;;;;;;;11.95;83.19;95151.28;4977580;28;1021;-48
2022/05/02 04:12:02;;;;;;;;;;;;;;;11.80;83.25;95164.47;4977518;28;1033;-48
2022/05/02 04:14:28;;;;;;;;;;;;;;;11.71;84.17;95155.59;4977512;28;1918;-48
2022/05/02 04:16:54;;;;;;;;;;;;;;;11.77;84.84;95155.94;4977440;28;1021;-48
2022/05/02 04:19:20;;;;;;;;;;;;;;;11.74;84.77;95159.78;4976787;28;1088;-48
2022/05/02 04:21:46;;;;;;;;;;;;;;;11.85;84.59;95162.09;4977623;28;982;-48
2022/05/02 04:24:14;;;;;;;;;;;;;;;11.97;84.52;95157.31;4977144;28;1049;-48
2022/05/02 04:26:40;;;;;;;;;;;;;;;12.06;84.71;95150.91;4977217;28;1225;-48
2022/05/02 04:29:06;;;;;;;;;;;;;;;12.12;83.89;95152.06;4977116;28;1009;-48
2022/05/02 04:31:32;;;;;;;;;;;;;;;12.19;83.91;95153.06;4977433;28;971;-48
2022/05/02 04:33:58;;;;;;;;;;;;;;;12.29;83.23;95152.84;4977015;28;1906;-48
2022/05/02 04:36:25;;;;;;;;;;;;;;;12.28;84.49;95152.03;4977323;28;1088;-48
2022/05/02 04:38:51;;;;;;;;;;;;;;;12.19;84.69;95150.38;4977288;28;1020;-48
2022/05/02 04:41:18;;;;;;;;;;;;;;;12.20;84.77;95143.16;4977076;28;978;-47
2022/05/02 04:43:44;;;;;;;;;;;;;;;12.24;84.40;95147.19;4977108;28;954;-48
2022/05/02 04:46:10;;;;;;;;;;;;;;;12.35;83.14;95149.50;4977021;28;985;-48
2022/05/02 04:48:36;;;;;;;;;;;;;;;12.46;80.65;95141.09;4976359;28;1057;-48
2022/05/02 04:51:02;;;;;;;;;;;;;;;12.62;82.60;95148.25;4976818;28;1193;-48
2022/05/02 04:53:28;;;;;;;;;;;;;;;12.81;81.45;95146.97;4976652;28;1907;-48
2022/05/02 04:55:54;;;;;;;;;;;;;;;12.97;80.89;95146.06;4975415;28;1044;-49
2022/05/02 04:58:20;;;;;;;;;;;;;;;13.04;80.61;95144.34;4976687;28;953;-48
2022/05/02 05:00:47;;;;;;;;;;;;;;;13.24;79.24;95142.06;4976585;28;1046;-48
2022/05/02 05:03:13;;;;;;;;;;;;;;;13.70;77.24;95141.25;4976809;28;1021;-48
2022/05/02 05:05:39;;;;;;;;;;;;;;;13.68;77.49;95148.66;4976352;28;1965;-48
2022/05/02 05:08:05;;;;;;;;;;;;;;;13.64;77.25;95150.03;4976715;28;1049;-48
2022/05/02 05:10:35;;;;;;;;;;;;;;;13.58;77.02;95148.03;4976067;28;1176;-48
2022/05/02 05:13:08;;;;;;;;;;;;;;;13.48;78.66;95149.13;4976475;28;1914;-48
2022/05/02 05:18:27;;;;;;;;;;;;;;;13.48;77.61;95138.38;4976268;28;1057;-48
2022/05/02 05:21:04;;;;;;;;;;;;;;;13.48;77.44;95138.38;4976412;28;1028;-48
2022/05/02 05:24:00;;;;;;;;;;;;;;;13.67;77.58;95136.22;4976323;28;962;-48
2022/05/02 05:26:26;;;;;;;;;;;;;;;14.03;76.24;95131.03;4923846;28;1615;-48
2022/05/02 05:29:01;;;;;;;;;;;;;;;14.36;72.92;95133.41;4976506;28;1034;-48
2022/05/02 05:31:40;;;;;;;;;;;;;;;14.93;72.11;95133.72;4975906;28;1029;-48
2022/05/02 05:34:24;;;;;;;;;;;;;;;15.29;68.64;95119.44;4975911;28;1992;-48
2022/05/02 05:37:09;;;;;;;;;;;;;;;15.41;67.53;95124.13;4976060;28;1042;-49
2022/05/02 05:39:41;;;;;;;;;;;;;;;17.09;63.25;95124.34;4975683;28;1103;-49
2022/05/02 05:42:10;;;;;;;;;;;;;;;17.63;61.92;95119.06;4975891;28;1063;-49
2022/05/02 05:44:40;;;;;;;;;;;;;;;16.80;60.96;95117.31;4975917;28;1017;-49
2022/05/02 05:47:17;;;;;;;;;;;;;;;15.99;63.25;95120.53;4976089;28;977;-48
2022/05/02 05:50:02;;;;;;;;;;;;;;;16.18;63.57;95113.63;4975955;28;1050;-48
2022/05/02 05:52:33;;;;;;;;;;;;;;;16.48;64.72;95121.50;4975908;28;1907;-48
2022/05/02 05:55:04;;;;;;;;;;;;;;;16.50;64.33;95108.63;4975800;28;1133;-48
2022/05/02 05:57:30;;;;;;;;;;;;;;;16.53;63.80;95111.78;4975552;28;1041;-48
2022/05/02 06:00:23;;;;;;;;;;;;;;;16.55;64.63;95103.50;4975386;28;1008;-49
2022/05/02 06:03:08;;;;;;;;;;;;;;;16.62;62.37;95104.38;4972840;28;1888;-48
2022/05/02 06:05:35;;;;;;;;;;;;;;;16.67;64.24;95101.06;4975261;28;965;-49
2022/05/02 06:08:03;;;;;;;;;;;;;;;16.75;64.02;95103.56;4974262;28;1021;-48
2022/05/02 06:10:30;;;;;;;;;;;;;;;17.05;64.54;95103.31;4975225;28;1080;-49
2022/05/02 06:12:57;;;;;;;;;;;;;;;17.31;63.74;95106.09;4975338;28;1992;-48
2022/05/02 06:18:27;;;;;;;;;;;;;;;17.66;64.19;95105.13;4975002;28;1113;-49
2022/05/02 06:20:55;;;;;;;;;;;;;;;17.53;60.99;95108.66;4974803;28;977;-49
2022/05/02 06:23:23;;;;;;;;;;;;;;;17.96;60.79;95097.47;4975305;28;971;-49
2022/05/02 06:25:49;;;;;;;;;;;;;;;18.19;59.93;95105.16;4975064;28;1222;-49
2022/05/02 06:28:18;;;;;;;;;;;;;;;18.34;58.76;95102.22;4974923;28;1242;-49
2022/05/02 06:30:48;;;;;;;;;;;;;;;18.50;58.42;95103.69;4974788;28;1047;-49
2022/05/02 06:33:14;;;;;;;;;;;;;;;18.21;57.45;95102.25;4974846;28;1915;-49
2022/05/02 06:35:47;;;;;;;;;;;;;;;18.22;57.04;95099.34;4974905;28;1047;-49
2022/05/02 06:38:27;;;;;;;;;;;;;;;18.68;58.47;95100.28;4975087;28;954;-49
2022/05/02 06:40:56;;;;;;;;;;;;;;;19.01;56.12;95092.09;4974763;28;1021;-49
2022/05/02 06:43:25;;;;;;;;;;;;;;;18.66;54.53;95088.84;4974726;28;1044;-49
2022/05/02 06:46:07;;;;;;;;;;;;;;;18.52;55.17;95079.94;4974423;28;1111;-49
2022/05/02 06:48:35;;;;;;;;;;;;;;;19.25;56.69;95074.22;4974728;28;1145;-48
2022/05/02 06:51:01;;;;;;;;;;;;;;;19.42;49.47;95076.44;4974574;28;977;-48
2022/05/02 06:53:33;;;;;;;;;;;;;;;19.00;53.21;95076.88;4974643;28;1910;-48
2022/05/02 06:56:05;;;;;;;;;;;;;;;18.56;54.40;95075.75;4974450;28;1021;-48
2022/05/02 06:58:42;;;;;;;;;;;;;;;19.40;52.71;95078.53;4974806;28;1045;-48
2022/05/02 07:01:08;;;;;;;;;;;;;;;20.21;53.59;95076.91;4974637;28;1042;-48
2022/05/02 07:03:57;;;;;;;;;;;;;;;20.44;50.58;95076.28;4974762;28;1004;-48
2022/05/02 07:06:29;;;;;;;;;;;;;;;20.66;48.07;95077.53;4974334;28;1054;-48
2022/05/02 07:09:04;;;;;;;;;;;;;;;20.89;49.51;95077.88;4989676;28;1032;-48
2022/05/02 07:11:38;;;;;;;;;;;;;;;21.12;48.35;95079.94;4974394;28;974;-48
2022/05/02 07:14:24;;;;;;;;;;;;;;;20.98;49.35;95088.25;4974682;28;1972;-48
2022/05/02 07:16:53;;;;;;;;;;;;;;;20.74;47.78;95094.59;4964009;28;1177;-48
2022/05/02 07:19:32;;;;;;;;;;;;;;;20.78;49.19;95087.66;4974285;28;1050;-48
2022/05/02 07:22:01;;;;;;;;;;;;;;;20.15;47.28;95096.81;4974364;28;966;-48
2022/05/02 07:24:30;;;;;;;;;;;;;;;19.64;50.17;95095.91;4974359;28;970;-48
2022/05/02 07:26:59;;;;;;;;;;;;;;;19.18;49.19;95081.59;4973794;28;1258;-48
2022/05/02 07:29:26;;;;;;;;;;;;;;;19.01;51.40;95080.41;4974226;28;1092;-47
2022/05/02 07:31:53;;;;;;;;;;;;;;;19.02;51.36;95072.06;4974652;28;1069;-48
2022/05/02 07:34:21;;;;;;;;;;;;;;;19.55;51.66;95081.78;4978290;28;1993;-48
2022/05/02 07:36:50;;;;;;;;;;;;;;;20.28;48.03;95091.25;4978326;28;1061;-48
2022/05/02 07:39:18;;;;;;;;;;;;;;;20.89;48.82;95075.16;4978314;28;993;-48
2022/05/02 07:41:44;;;;;;;;;;;;;;;20.99;46.50;95070.03;4978263;28;977;-48
2022/05/02 07:44:15;;;;;;;;;;;;;;;20.90;46.82;95074.13;4977947;28;965;-48
2022/05/02 07:46:42;;;;;;;;;;;;;;;20.90;45.56;95060.53;4977596;28;1041;-48
2022/05/02 07:49:09;;;;;;;;;;;;;;;21.05;47.70;95064.50;4977718;28;999;-48
2022/05/02 07:51:51;;;;;;;;;;;;;;;20.84;47.89;95065.81;4977695;28;1026;-48
2022/05/02 07:54:20;;;;;;;;;;;;;;;20.90;46.66;95055.94;4978071;28;2013;-48
2022/05/02 07:56:47;;;;;;;;;;;;;;;20.92;46.13;95055.69;4977831;28;1037;-48
2022/05/02 07:59:14;;;;;;;;;;;;;;;20.70;45.52;95052.63;4977761;28;1033;-48
2022/05/02 08:01:41;;;;;;;;;;;;;;;20.39;44.99;95060.63;4977521;28;962;-49
2022/05/02 08:04:11;;;;;;;;;;;;;;;20.11;46.85;95046.72;4978112;28;1042;-49
2022/05/02 08:06:37;;;;;;;;;;;;;;;19.61;47.29;95042.91;4977845;28;1053;-49
2022/05/02 08:09:22;;;;;;;;;;;;;;;19.94;49.50;95041.88;4992530;28;943;-48
2022/05/02 08:11:48;;;;;;;;;;;;;;;20.15;47.03;95043.34;4977646;28;1021;-48
2022/05/02 08:14:19;;;;;;;;;;;;;;;19.96;46.75;95049.81;4977317;28;1910;-49
2022/05/02 08:16:57;;;;;;;;;;;;;;;19.73;44.42;95048.53;4977310;28;1033;-48
2022/05/02 08:19:35;;;;;;;;;;;;;;;19.96;45.44;95045.19;4977601;28;1076;-48
2022/05/02 08:27:48;;;;;;;;;;;;;;;20.42;45.58;95046.63;4976085;28;1266;-49
2022/05/02 08:30:22;;;;;;;;;;;;;;;20.39;45.49;95049.78;4977107;28;958;-49
2022/05/02 08:32:48;;;;;;;;;;;;;;;20.35;46.56;95055.91;4977210;28;1907;-49
2022/05/02 08:35:17;;;;;;;;;;;;;;;20.28;44.99;95054.09;4977447;28;977;-49
2022/05/02 08:37:43;;;;;;;;;;;;;;;19.74;46.42;95047.44;4977254;28;1033;-49
2022/05/02 08:40:24;;;;;;;;;;;;;;;19.61;45.80;95048.34;4977355;28;1118;-49
2022/05/02 08:42:54;;;;;;;;;;;;;;;20.17;46.62;95046.66;4977064;28;980;-49
2022/05/02 08:45:39;;;;;;;;;;;;;;;20.44;43.84;95036.38;4976511;28;1036;-49
2022/05/02 08:48:08;;;;;;;;;;;;;;;20.28;44.71;95028.81;4976585;28;1238;-49
2022/05/02 08:50:44;;;;;;;;;;;;;;;20.42;43.95;95016.75;4976793;28;1033;-49
2022/05/02 08:53:13;;;;;;;;;;;;;;;20.22;41.72;95027.00;4976579;28;1991;-49
2022/05/02 08:55:57;;;;;;;;;;;;;;;20.06;43.19;95023.78;4976965;28;974;-49
2022/05/02 08:58:42;;;;;;;;;;;;;;;20.18;43.37;95009.50;4976631;28;997;-49
2022/05/02 09:01:37;;;;;;;;;;;;;;;20.74;44.10;95013.91;4976600;28;1041;-49
2022/05/02 09:04:19;;;;;;;;;;;;;;;20.63;43.96;95004.63;4976752;28;1037;-49
2022/05/02 09:07:04;;;;;;;;;;;;;;;20.41;43.16;95001.53;4976784;28;1052;-49
2022/05/02 09:09:49;;;;;;;;;;;;;;;20.16;44.98;94998.03;4976255;28;1037;-49
2022/05/02 09:12:34;;;;;;;;;;;;;;;20.05;45.11;95005.88;4976421;28;1014;-49
2022/05/02 09:15:19;;;;;;;;;;;;;;;19.76;41.67;95003.84;4976339;28;969;-49
2022/05/02 09:18:01;;;;;;;;;;;;;;;19.79;43.40;94992.56;4976199;28;1029;-49
2022/05/02 09:20:36;;;;;;;;;;;;;;;20.20;42.11;94986.50;4976202;28;1036;-49
2022/05/02 09:23:19;;;;;;;;;;;;;;;20.01;42.67;94988.34;4976428;28;986;-49
2022/05/02 09:25:45;;;;;;;;;;;;;;;20.12;41.25;94977.81;4976315;28;1214;-49
2022/05/02 09:28:20;;;;;;;;;;;;;;;20.14;41.49;94983.84;4976026;28;1080;-49
2022/05/02 09:30:52;;;;;;;;;;;;;;;20.05;41.28;94975.16;4976010;28;1085;-49
2022/05/02 09:33:21;;;;;;;;;;;;;;;19.91;41.07;94990.75;4975940;28;1911;-49
2022/05/02 09:35:52;;;;;;;;;;;;;;;19.55;41.38;94981.44;4976366;28;1046;-49
2022/05/02 09:38:21;;;;;;;;;;;;;;;19.35;42.52;94973.47;4975807;28;986;-49
2022/05/02 09:40:47;;;;;;;;;;;;;;;19.25;44.54;94981.25;4975940;28;1038;-49
2022/05/02 09:43:23;;;;;;;;;;;;;;;19.22;44.72;94968.97;4975839;28;1092;-49
2022/05/02 09:51:29;;;;;;;;;;;;;;;19.10;44.80;94966.16;4975657;28;1100;-49
2022/05/02 09:54:05;;;;;;;;;;;;;;;19.26;43.57;94961.25;4975431;28;1903;-49
2022/05/02 09:56:43;;;;;;;;;;;;;;;19.36;43.00;94961.56;4974875;28;1001;-48
2022/05/02 09:59:17;;;;;;;;;;;;;;;19.64;42.48;94971.97;4975354;28;1021;-49
2022/05/02 10:01:46;;;;;;;;;;;;;;;19.53;43.35;94964.56;4975847;28;1025;-49
2022/05/02 10:04:26;;;;;;;;;;;;;;;19.59;42.61;94954.72;4975589;28;1001;-49
2022/05/02 10:06:53;;;;;;;;;;;;;;;19.50;43.09;94948.72;4975409;28;1033;-49
2022/05/02 10:09:43;;;;;;;;;;;;;;;19.39;44.65;94957.56;4975347;28;1013;-49
2022/05/02 10:12:21;;;;;;;;;;;;;;;19.28;42.69;94953.72;4948077;28;1172;-49
2022/05/02 10:14:50;;;;;;;;;;;;;;;19.21;44.24;94951.03;4975247;28;959;-49
2022/05/02 10:17:28;;;;;;;;;;;;;;;19.08;45.61;94953.84;4975571;28;1052;-49
2022/05/02 10:19:54;;;;;;;;;;;;;;;18.96;44.92;94950.19;4975350;28;1044;-49
2022/05/02 10:22:20;;;;;;;;;;;;;;;18.95;45.03;94949.34;4975365;28;1016;-48
2022/05/02 10:25:06;;;;;;;;;;;;;;;18.86;42.81;94948.78;4975002;28;1021;-49
2022/05/02 10:27:40;;;;;;;;;;;;;;;18.85;44.07;94952.53;4955509;28;1972;-49
2022/05/02 10:30:07;;;;;;;;;;;;;;;18.75;45.04;94952.16;4955782;28;953;-49
2022/05/02 10:32:56;;;;;;;;;;;;;;;18.89;44.83;94947.50;4955692;28;1989;-49
2022/05/02 10:35:23;;;;;;;;;;;;;;;18.65;42.86;94951.81;4955484;28;1037;-49
2022/05/02 10:37:56;;;;;;;;;;;;;;;18.62;44.08;94950.34;4955856;28;1033;-49
2022/05/02 10:40:41;;;;;;;;;;;;;;;18.69;42.70;94944.91;4955323;28;1021;-49
2022/05/02 10:43:09;;;;;;;;;;;;;;;18.75;42.66;94938.59;4955515;28;1142;-49
2022/05/02 10:45:36;;;;;;;;;;;;;;;18.71;42.47;94945.50;4955232;28;1006;-49
2022/05/02 10:48:15;;;;;;;;;;;;;;;18.73;43.92;94943.41;4955350;28;972;-49
2022/05/02 10:50:44;;;;;;;;;;;;;;;18.63;43.21;94937.63;4955374;28;917;-49
2022/05/02 10:53:16;;;;;;;;;;;;;;;18.52;43.85;94939.97;4955561;28;1992;-49
2022/05/02 10:56:09;;;;;;;;;;;;;;;18.67;43.98;94949.69;4955188;28;1139;-49
2022/05/02 10:58:36;;;;;;;;;;;;;;;18.48;43.31;94940.63;4932838;28;1120;-49
2022/05/02 11:01:05;;;;;;;;;;;;;;;18.51;43.88;94937.47;4955373;29;1021;-49
2022/05/02 11:03:46;;;;;;;;;;;;;;;18.47;43.46;94933.53;4955462;28;960;-49
2022/05/02 11:06:37;;;;;;;;;;;;;;;18.29;43.51;94942.38;4955083;28;1097;-49
2022/05/02 11:09:04;;;;;;;;;;;;;;;18.10;42.31;94922.47;4955259;28;955;-49
2022/05/02 11:11:30;;;;;;;;;;;;;;;18.01;41.73;94915.63;4955198;28;1001;-49
2022/05/02 11:14:00;;;;;;;;;;;;;;;18.00;43.00;94920.19;4955187;28;2007;-49
2022/05/02 11:16:30;;;;;;;;;;;;;;;17.87;41.64;94901.28;4955062;29;966;-49
2022/05/02 11:22:20;;;;;;;;;;;;;;;17.84;43.68;94910.66;4946797;28;1218;-49
2022/05/02 11:24:47;;;;;;;;;;;;;;;17.80;42.62;94904.00;4955229;28;1029;-49
2022/05/02 11:27:31;;;;;;;;;;;;;;;17.73;43.09;94911.28;4971503;28;1246;-48
2022/05/02 11:30:03;;;;;;;;;;;;;;;17.68;43.49;94911.09;4974230;28;1034;-49
2022/05/02 11:32:29;;;;;;;;;;;;;;;17.72;43.30;94907.75;4974432;28;1989;-48
2022/05/02 11:35:10;;;;;;;;;;;;;;;17.62;44.19;94901.94;4974444;28;1022;-49
2022/05/02 11:37:41;;;;;;;;;;;;;;;17.59;42.78;94915.91;4974376;28;969;-48
2022/05/02 11:40:09;;;;;;;;;;;;;;;17.47;43.31;94913.00;4974330;28;1038;-49
2022/05/02 11:42:40;;;;;;;;;;;;;;;17.41;44.35;94913.00;4974140;28;988;-49
2022/05/02 11:45:08;;;;;;;;;;;;;;;17.36;42.89;94913.66;4974084;28;1029;-49
2022/05/02 11:48:01;;;;;;;;;;;;;;;17.44;43.64;94916.13;4974022;28;1043;-49
2022/05/02 11:50:28;;;;;;;;;;;;;;;17.33;43.43;94914.88;4973869;28;1088;-48
2022/05/02 11:52:55;;;;;;;;;;;;;;;17.28;43.44;94903.88;4974313;28;1903;-49
2022/05/02 11:55:33;;;;;;;;;;;;;;;17.29;43.17;94913.63;4973731;28;1042;-49
2022/05/02 11:58:05;;;;;;;;;;;;;;;17.16;42.78;94905.53;4974164;28;1033;-49
2022/05/02 12:00:32;;;;;;;;;;;;;;;17.17;42.82;94902.63;4974023;28;1009;-49
2022/05/02 12:02:58;;;;;;;;;;;;;;;17.17;43.06;94891.81;4973919;28;1096;-49
2022/05/02 12:05:27;;;;;;;;;;;;;;;17.16;42.43;94886.63;4973974;28;1036;-49
2022/05/02 12:07:54;;;;;;;;;;;;;;;17.24;41.82;94886.41;4974219;28;977;-49
2022/05/02 12:10:22;;;;;;;;;;;;;;;17.21;42.79;94891.41;4973884;28;966;-49
2022/05/02 12:12:51;;;;;;;;;;;;;;;17.39;42.77;94890.75;4973862;28;1903;-49
2022/05/02 12:15:18;;;;;;;;;;;;;;;17.41;42.79;94884.09;4974029;28;971;-48
2022/05/02 12:17:51;;;;;;;;;;;;;;;17.43;42.27;94883.91;4973623;28;975;-49
2022/05/02 12:20:27;;;;;;;;;;;;;;;17.31;42.43;94881.00;4976716;28;1068;-49
2022/05/02 12:22:54;;;;;;;;;;;;;;;17.25;42.83;94877.25;4977576;28;1004;-49
2022/05/02 12:25:23;;;;;;;;;;;;;;;17.32;43.75;94883.50;4977497;28;1325;-49
2022/05/02 12:27:50;;;;;;;;;;;;;;;17.30;43.82;94885.59;4976955;28;1076;-49
2022/05/02 12:30:17;;;;;;;;;;;;;;;17.27;43.44;94885.16;4977551;28;1030;-49
2022/05/02 12:32:45;;;;;;;;;;;;;;;17.23;43.98;94884.75;4976936;28;1987;-49
2022/05/02 12:35:12;;;;;;;;;;;;;;;17.16;42.21;94884.75;4977488;28;1004;-49
2022/05/02 12:37:39;;;;;;;;;;;;;;;17.05;42.30;94879.97;4977101;28;1124;-49
2022/05/02 12:40:08;;;;;;;;;;;;;;;17.03;42.96;94879.34;4977346;28;994;-48
2022/05/02 12:42:39;;;;;;;;;;;;;;;17.01;43.88;94875.19;4976994;28;1004;-48
2022/05/02 12:45:07;;;;;;;;;;;;;;;17.06;43.74;94875.41;4977018;28;1013;-49
2022/05/02 12:47:40;;;;;;;;;;;;;;;17.15;44.00;94874.16;4976420;28;1021;-49
2022/05/02 12:50:16;;;;;;;;;;;;;;;17.05;43.28;94874.56;4975997;28;954;-49
2022/05/02 12:52:44;;;;;;;;;;;;;;;17.00;44.92;94873.53;4976617;28;2013;-49
2022/05/02 12:55:11;;;;;;;;;;;;;;;17.00;44.49;94870.81;4977064;28;954;-49
2022/05/02 13:00:33;;;;;;;;;;;;;;;16.97;43.42;94866.69;4976895;28;1034;-49
2022/05/02 13:03:00;;;;;;;;;;;;;;;16.86;43.22;94865.41;4976732;28;1024;-49
2022/05/02 13:05:29;;;;;;;;;;;;;;;16.76;43.88;94862.28;4976861;28;974;-49
2022/05/02 13:07:55;;;;;;;;;;;;;;;16.80;43.26;94871.63;4976754;28;1023;-49
2022/05/02 13:10:25;;;;;;;;;;;;;;;16.78;42.18;94857.50;4976686;28;1055;-49
2022/05/02 13:16:29;;;;;;;;;;;;;;;16.63;42.00;94860.38;4976324;28;1084;-49
2022/05/02 13:18:58;;;;;;;;;;;;;;;16.59;42.12;94859.16;4976126;28;1129;-49
2022/05/02 13:21:24;;;;;;;;;;;;;;;16.71;42.56;94853.97;4976305;28;1147;-49
2022/05/02 13:23:54;;;;;;;;;;;;;;;16.73;42.62;94850.03;4976374;28;1088;-48
2022/05/02 13:26:27;;;;;;;;;;;;;;;16.81;42.64;94849.00;4975735;28;1159;-49
2022/05/02 13:28:55;;;;;;;;;;;;;;;16.71;43.05;94853.97;4976214;28;1042;-48
2022/05/02 13:31:29;;;;;;;;;;;;;;;16.68;42.44;94855.22;4975873;28;1041;-49
2022/05/02 13:33:58;;;;;;;;;;;;;;;16.67;42.70;94847.31;4975913;28;1975;-49
2022/05/02 13:36:25;;;;;;;;;;;;;;;16.59;42.50;94849.16;4976109;28;1005;-49
2022/05/02 13:38:54;;;;;;;;;;;;;;;16.57;43.06;94848.53;4975890;28;1042;-49
2022/05/02 13:41:32;;;;;;;;;;;;;;;16.50;41.87;94857.66;4975766;28;1068;-49
2022/05/02 13:44:03;;;;;;;;;;;;;;;16.50;42.72;94847.69;4975769;28;973;-49
2022/05/02 13:46:32;;;;;;;;;;;;;;;16.51;42.43;94846.69;4976055;28;1029;-49